Aviation Digital Data Service (ADDS)

Output produced by METARs form (0656 UTC 20 March 2019)
found at http://www.aviationweather.gov/metar/data/
 
METAR text: ZPPP 200600Z 24009MPS 9999 FEW026TCU SCT026 BKN040 18/04 Q1018 NOSIG
Conditions at: ZPPP (KUNMING/WUJIABA , CN) observed 0600 UTC 20 March 2019
Temperature: 18.0°C (64°F)
Dewpoint: 4.0°C (39°F) [RH = 39%]
Pressure (altimeter): 30.06 inches Hg (1018.0 mb)
Winds: from the WSW (240 degrees) at 20 MPH (17 knots; 8.7 m/s)
Visibility: 6 or more miles (10+ km)
Ceiling: 4000 feet AGL
Clouds: few clouds at 2600 feet AGL
scattered clouds at 2600 feet AGL
broken clouds at 4000 feet AGL
Weather: no significant weather observed at this time

METAR text: ZPPP 200500Z 24010MPS 9999 FEW026TCU SCT026 BKN040 17/04 Q1019 NOSIG
Conditions at: ZPPP (KUNMING/WUJIABA , CN) observed 0500 UTC 20 March 2019
Temperature: 17.0°C (63°F)
Dewpoint: 4.0°C (39°F) [RH = 42%]
Pressure (altimeter): 30.09 inches Hg (1019.0 mb)
Winds: from the WSW (240 degrees) at 22 MPH (19 knots; 9.8 m/s)
Visibility: 6 or more miles (10+ km)
Ceiling: 4000 feet AGL
Clouds: few clouds at 2600 feet AGL
scattered clouds at 2600 feet AGL
broken clouds at 4000 feet AGL
Weather: no significant weather observed at this time

METAR text: ZPPP 200400Z 25011MPS 9999 SCT026 SCT040 17/03 Q1020 NOSIG
Conditions at: ZPPP (KUNMING/WUJIABA , CN) observed 0400 UTC 20 March 2019
Temperature: 17.0°C (63°F)
Dewpoint: 3.0°C (37°F) [RH = 39%]
Pressure (altimeter): 30.12 inches Hg (1020.0 mb)
Winds: from the WSW (250 degrees) at 24 MPH (21 knots; 10.8 m/s)
Visibility: 6 or more miles (10+ km)
Ceiling: at least 12,000 feet AGL
Clouds: scattered clouds at 2600 feet AGL
scattered clouds at 4000 feet AGL
Weather: no significant weather observed at this time

METAR text: ZPPP 200300Z 23009MPS 9999 SCT026 18/03 Q1020 NOSIG
Conditions at: ZPPP (KUNMING/WUJIABA , CN) observed 0300 UTC 20 March 2019
Temperature: 18.0°C (64°F)
Dewpoint: 3.0°C (37°F) [RH = 37%]
Pressure (altimeter): 30.12 inches Hg (1020.0 mb)
Winds: from the SW (230 degrees) at 20 MPH (17 knots; 8.7 m/s)
Visibility: 6 or more miles (10+ km)
Ceiling: at least 12,000 feet AGL
Clouds: scattered clouds at 2600 feet AGL
Weather: no significant weather observed at this time

METAR text: ZPPP 200200Z 24008MPS CAVOK 16/02 Q1020 NOSIG
Conditions at: ZPPP (KUNMING/WUJIABA , CN) observed 0200 UTC 20 March 2019
Temperature: 16.0°C (61°F)
Dewpoint: 2.0°C (36°F) [RH = 39%]
Pressure (altimeter): 30.12 inches Hg (1020.0 mb)
Winds: from the WSW (240 degrees) at 18 MPH (16 knots; 8.2 m/s)
Visibility: 6 or more miles (10+ km)
Ceiling: ceiling and visibility are OK
Clouds: unknown
Weather: no significant weather observed at this time

METAR text: ZPPP 200100Z 23006MPS CAVOK 14/02 Q1020 NOSIG
Conditions at: ZPPP (KUNMING/WUJIABA , CN) observed 0100 UTC 20 March 2019
Temperature: 14.0°C (57°F)
Dewpoint: 2.0°C (36°F) [RH = 44%]
Pressure (altimeter): 30.12 inches Hg (1020.0 mb)
Winds: from the SW (230 degrees) at 14 MPH (12 knots; 6.2 m/s)
Visibility: 6 or more miles (10+ km)
Ceiling: ceiling and visibility are OK
Clouds: unknown
Weather: no significant weather observed at this time

METAR text: ZPPP 200000Z 22005MPS CAVOK 11/02 Q1019 BECMG TL0150 22011MPS
Conditions at: ZPPP (KUNMING/WUJIABA , CN) observed 0000 UTC 20 March 2019
Temperature: 11.0°C (52°F)
Dewpoint: 2.0°C (36°F) [RH = 54%]
Pressure (altimeter): 30.09 inches Hg (1019.0 mb)
Winds: from the SW (220 degrees) at 12 MPH (10 knots; 5.1 m/s)
Visibility: 6 or more miles (10+ km)
Ceiling: ceiling and visibility are OK
Clouds: unknown
Weather: no significant weather observed at this time

METAR text: ZPPP 192300Z 24005MPS CAVOK 10/02 Q1019 NOSIG
Conditions at: ZPPP (KUNMING/WUJIABA , CN) observed 2300 UTC 19 March 2019
Temperature: 10.0°C (50°F)
Dewpoint: 2.0°C (36°F) [RH = 57%]
Pressure (altimeter): 30.09 inches Hg (1019.0 mb)
Winds: from the WSW (240 degrees) at 12 MPH (10 knots; 5.1 m/s)
Visibility: 6 or more miles (10+ km)
Ceiling: ceiling and visibility are OK
Clouds: unknown
Weather: no significant weather observed at this time

METAR text: ZPPP 192200Z 26004MPS CAVOK 10/01 Q1018 NOSIG
Conditions at: ZPPP (KUNMING/WUJIABA , CN) observed 2200 UTC 19 March 2019
Temperature: 10.0°C (50°F)
Dewpoint: 1.0°C (34°F) [RH = 53%]
Pressure (altimeter): 30.06 inches Hg (1018.0 mb)
Winds: from the W (260 degrees) at 9 MPH (8 knots; 4.1 m/s)
Visibility: 6 or more miles (10+ km)
Ceiling: ceiling and visibility are OK
Clouds: unknown
Weather: no significant weather observed at this time

METAR text: ZPPP 192100Z 25004MPS CAVOK 11/01 Q1018 NOSIG
Conditions at: ZPPP (KUNMING/WUJIABA , CN) observed 2100 UTC 19 March 2019
Temperature: 11.0°C (52°F)
Dewpoint: 1.0°C (34°F) [RH = 50%]
Pressure (altimeter): 30.06 inches Hg (1018.0 mb)
Winds: from the WSW (250 degrees) at 9 MPH (8 knots; 4.1 m/s)
Visibility: 6 or more miles (10+ km)
Ceiling: ceiling and visibility are OK
Clouds: unknown
Weather: no significant weather observed at this time

METAR text: ZPPP 192000Z 24007MPS CAVOK 12/02 Q1018 NOSIG
Conditions at: ZPPP (KUNMING/WUJIABA , CN) observed 2000 UTC 19 March 2019
Temperature: 12.0°C (54°F)
Dewpoint: 2.0°C (36°F) [RH = 50%]
Pressure (altimeter): 30.06 inches Hg (1018.0 mb)
Winds: from the WSW (240 degrees) at 16 MPH (14 knots; 7.2 m/s)
Visibility: 6 or more miles (10+ km)
Ceiling: ceiling and visibility are OK
Clouds: unknown
Weather: no significant weather observed at this time

METAR text: ZPPP 191900Z 23005MPS CAVOK 11/02 Q1018 NOSIG
Conditions at: ZPPP (KUNMING/WUJIABA , CN) observed 1900 UTC 19 March 2019
Temperature: 11.0°C (52°F)
Dewpoint: 2.0°C (36°F) [RH = 54%]
Pressure (altimeter): 30.06 inches Hg (1018.0 mb)
Winds: from the SW (230 degrees) at 12 MPH (10 knots; 5.1 m/s)
Visibility: 6 or more miles (10+ km)
Ceiling: ceiling and visibility are OK
Clouds: unknown
Weather: no significant weather observed at this time

METAR text: ZPPP 191800Z 24007MPS CAVOK 13/01 Q1018 NOSIG
Conditions at: ZPPP (KUNMING/WUJIABA , CN) observed 1800 UTC 19 March 2019
Temperature: 13.0°C (55°F)
Dewpoint: 1.0°C (34°F) [RH = 44%]
Pressure (altimeter): 30.06 inches Hg (1018.0 mb)
Winds: from the WSW (240 degrees) at 16 MPH (14 knots; 7.2 m/s)
Visibility: 6 or more miles (10+ km)
Ceiling: ceiling and visibility are OK
Clouds: unknown
Weather: no significant weather observed at this time

METAR text: ZPPP 191700Z 24008MPS CAVOK 14/01 Q1019 NOSIG
Conditions at: ZPPP (KUNMING/WUJIABA , CN) observed 1700 UTC 19 March 2019
Temperature: 14.0°C (57°F)
Dewpoint: 1.0°C (34°F) [RH = 41%]
Pressure (altimeter): 30.09 inches Hg (1019.0 mb)
Winds: from the WSW (240 degrees) at 18 MPH (16 knots; 8.2 m/s)
Visibility: 6 or more miles (10+ km)
Ceiling: ceiling and visibility are OK
Clouds: unknown
Weather: no significant weather observed at this time

METAR text: ZPPP 191600Z 24006MPS CAVOK 14/00 Q1019 NOSIG
Conditions at: ZPPP (KUNMING/WUJIABA , CN) observed 1600 UTC 19 March 2019
Temperature: 14.0°C (57°F)
Dewpoint: 0.0°C (32°F) [RH = 38%]
Pressure (altimeter): 30.09 inches Hg (1019.0 mb)
Winds: from the WSW (240 degrees) at 14 MPH (12 knots; 6.2 m/s)
Visibility: 6 or more miles (10+ km)
Ceiling: ceiling and visibility are OK
Clouds: unknown
Weather: no significant weather observed at this time

METAR text: ZPPP 191500Z 24007MPS CAVOK 14/00 Q1019 NOSIG
Conditions at: ZPPP (KUNMING/WUJIABA , CN) observed 1500 UTC 19 March 2019
Temperature: 14.0°C (57°F)
Dewpoint: 0.0°C (32°F) [RH = 38%]
Pressure (altimeter): 30.09 inches Hg (1019.0 mb)
Winds: from the WSW (240 degrees) at 16 MPH (14 knots; 7.2 m/s)
Visibility: 6 or more miles (10+ km)
Ceiling: ceiling and visibility are OK
Clouds: unknown
Weather: no significant weather observed at this time

METAR text: ZPPP 191400Z 24008MPS 9999 SCT026 15/00 Q1018 NOSIG
Conditions at: ZPPP (KUNMING/WUJIABA , CN) observed 1400 UTC 19 March 2019
Temperature: 15.0°C (59°F)
Dewpoint: 0.0°C (32°F) [RH = 36%]
Pressure (altimeter): 30.06 inches Hg (1018.0 mb)
Winds: from the WSW (240 degrees) at 18 MPH (16 knots; 8.2 m/s)
Visibility: 6 or more miles (10+ km)
Ceiling: at least 12,000 feet AGL
Clouds: scattered clouds at 2600 feet AGL
Weather: no significant weather observed at this time

METAR text: ZPPP 191300Z 24008MPS 9999 SCT026 16/01 Q1017 NOSIG
Conditions at: ZPPP (KUNMING/WUJIABA , CN) observed 1300 UTC 19 March 2019
Temperature: 16.0°C (61°F)
Dewpoint: 1.0°C (34°F) [RH = 36%]
Pressure (altimeter): 30.03 inches Hg (1017.0 mb)
Winds: from the WSW (240 degrees) at 18 MPH (16 knots; 8.2 m/s)
Visibility: 6 or more miles (10+ km)
Ceiling: at least 12,000 feet AGL
Clouds: scattered clouds at 2600 feet AGL
Weather: no significant weather observed at this time

METAR text: ZPPP 191200Z 24011MPS 9999 SCT026 16/00 Q1016 NOSIG
Conditions at: ZPPP (KUNMING/WUJIABA , CN) observed 1200 UTC 19 March 2019
Temperature: 16.0°C (61°F)
Dewpoint: 0.0°C (32°F) [RH = 34%]
Pressure (altimeter): 30.00 inches Hg (1016.0 mb)
Winds: from the WSW (240 degrees) at 24 MPH (21 knots; 10.8 m/s)
Visibility: 6 or more miles (10+ km)
Ceiling: at least 12,000 feet AGL
Clouds: scattered clouds at 2600 feet AGL
Weather: no significant weather observed at this time

METAR text: ZPPP 191100Z 24012MPS 9999 SCT026 17/01 Q1015 NOSIG
Conditions at: ZPPP (KUNMING/WUJIABA , CN) observed 1100 UTC 19 March 2019
Temperature: 17.0°C (63°F)
Dewpoint: 1.0°C (34°F) [RH = 34%]
Pressure (altimeter): 29.97 inches Hg (1015.0 mb)
Winds: from the WSW (240 degrees) at 26 MPH (23 knots; 11.8 m/s)
Visibility: 6 or more miles (10+ km)
Ceiling: at least 12,000 feet AGL
Clouds: scattered clouds at 2600 feet AGL
Weather: no significant weather observed at this time

METAR text: ZPPP 191000Z 24012G17MPS 9999 SCT026 18/00 Q1014 RMK WS RWY21 NOSIG
Conditions at: ZPPP (KUNMING/WUJIABA , CN) observed 1000 UTC 19 March 2019
Temperature: 18.0°C (64°F)
Dewpoint: 0.0°C (32°F) [RH = 30%]
Pressure (altimeter): 29.94 inches Hg (1014.0 mb)
Winds: from the WSW (240 degrees) at 26 MPH (23 knots; 11.8 m/s)
gusting to 38 MPH (33 knots; 17.0 m/s)
Visibility: 6 or more miles (10+ km)
Ceiling: at least 12,000 feet AGL
Clouds: scattered clouds at 2600 feet AGL
Weather: no significant weather observed at this time

METAR text: ZPPP 190900Z 24017MPS 9999 SCT026 18/M00 Q1014 NOSIG
Conditions at: ZPPP (KUNMING/WUJIABA , CN) observed 0900 UTC 19 March 2019
Temperature: 18.0°C (64°F)
Dewpoint: 0.0°C (32°F) [RH = 30%]
Pressure (altimeter): 29.94 inches Hg (1014.0 mb)
Winds: from the WSW (240 degrees) at 38 MPH (33 knots; 17.0 m/s)
Visibility: 6 or more miles (10+ km)
Ceiling: at least 12,000 feet AGL
Clouds: scattered clouds at 2600 feet AGL
Weather: no significant weather observed at this time

METAR text: ZPPP 190800Z 23013MPS 9999 SCT026 18/M00 Q1014 NOSIG
Conditions at: ZPPP (KUNMING/WUJIABA , CN) observed 0800 UTC 19 March 2019
Temperature: 18.0°C (64°F)
Dewpoint: 0.0°C (32°F) [RH = 30%]
Pressure (altimeter): 29.94 inches Hg (1014.0 mb)
Winds: from the SW (230 degrees) at 29 MPH (25 knots; 12.9 m/s)
Visibility: 6 or more miles (10+ km)
Ceiling: at least 12,000 feet AGL
Clouds: scattered clouds at 2600 feet AGL
Weather: no significant weather observed at this time

METAR text: ZPPP 190700Z 23011G16MPS 9999 FEW026 17/02 Q1016 NOSIG
Conditions at: ZPPP (KUNMING/WUJIABA , CN) observed 0700 UTC 19 March 2019
Temperature: 17.0°C (63°F)
Dewpoint: 2.0°C (36°F) [RH = 36%]
Pressure (altimeter): 30.00 inches Hg (1016.0 mb)
Winds: from the SW (230 degrees) at 24 MPH (21 knots; 10.8 m/s)
gusting to 36 MPH (31 knots; 15.9 m/s)
Visibility: 6 or more miles (10+ km)
Ceiling: at least 12,000 feet AGL
Clouds: few clouds at 2600 feet AGL
Weather: no significant weather observed at this time

METAR text: ZPPP 190600Z 24012G19MPS 9999 -SHRA SCT026 15/01 Q1018 NOSIG
Conditions at: ZPPP (KUNMING/WUJIABA , CN) observed 0600 UTC 19 March 2019
Temperature: 15.0°C (59°F)
Dewpoint: 1.0°C (34°F) [RH = 39%]
Pressure (altimeter): 30.06 inches Hg (1018.0 mb)
Winds: from the WSW (240 degrees) at 26 MPH (23 knots; 11.8 m/s)
gusting to 43 MPH (37 knots; 19.0 m/s)
Visibility: 6 or more miles (10+ km)
Ceiling: at least 12,000 feet AGL
Clouds: scattered clouds at 2600 feet AGL
Weather: -SHRA  (light rain showers)

METAR text: ZPPP 190500Z 24012G17MPS 9999 SCT026 16/02 Q1019 NOSIG
Conditions at: ZPPP (KUNMING/WUJIABA , CN) observed 0500 UTC 19 March 2019
Temperature: 16.0°C (61°F)
Dewpoint: 2.0°C (36°F) [RH = 39%]
Pressure (altimeter): 30.09 inches Hg (1019.0 mb)
Winds: from the WSW (240 degrees) at 26 MPH (23 knots; 11.8 m/s)
gusting to 38 MPH (33 knots; 17.0 m/s)
Visibility: 6 or more miles (10+ km)
Ceiling: at least 12,000 feet AGL
Clouds: scattered clouds at 2600 feet AGL
Weather: no significant weather observed at this time

METAR text: ZPPP 190400Z 23012G17MPS 9999 SCT026 BKN043 16/03 Q1019 NOSIG
Conditions at: ZPPP (KUNMING/WUJIABA , CN) observed 0400 UTC 19 March 2019
Temperature: 16.0°C (61°F)
Dewpoint: 3.0°C (37°F) [RH = 42%]
Pressure (altimeter): 30.09 inches Hg (1019.0 mb)
Winds: from the SW (230 degrees) at 26 MPH (23 knots; 11.8 m/s)
gusting to 38 MPH (33 knots; 17.0 m/s)
Visibility: 6 or more miles (10+ km)
Ceiling: 4300 feet AGL
Clouds: scattered clouds at 2600 feet AGL
broken clouds at 4300 feet AGL
Weather: no significant weather observed at this time

METAR text: ZPPP 190300Z 26012MPS 9999 SCT026 BKN043 15/03 Q1020 NOSIG
Conditions at: ZPPP (KUNMING/WUJIABA , CN) observed 0300 UTC 19 March 2019
Temperature: 15.0°C (59°F)
Dewpoint: 3.0°C (37°F) [RH = 44%]
Pressure (altimeter): 30.12 inches Hg (1020.0 mb)
Winds: from the W (260 degrees) at 26 MPH (23 knots; 11.8 m/s)
Visibility: 6 or more miles (10+ km)
Ceiling: 4300 feet AGL
Clouds: scattered clouds at 2600 feet AGL
broken clouds at 4300 feet AGL
Weather: no significant weather observed at this time

METAR text: ZPPP 190200Z 26009MPS 9999 SCT026 BKN043 14/04 Q1020 NOSIG
Conditions at: ZPPP (KUNMING/WUJIABA , CN) observed 0200 UTC 19 March 2019
Temperature: 14.0°C (57°F)
Dewpoint: 4.0°C (39°F) [RH = 51%]
Pressure (altimeter): 30.12 inches Hg (1020.0 mb)
Winds: from the W (260 degrees) at 20 MPH (17 knots; 8.7 m/s)
Visibility: 6 or more miles (10+ km)
Ceiling: 4300 feet AGL
Clouds: scattered clouds at 2600 feet AGL
broken clouds at 4300 feet AGL
Weather: no significant weather observed at this time

METAR text: ZPPP 190100Z 24005MPS 210V280 9999 FEW026 SCT043 14/04 Q1019 BECMG TL0250 23011MPS
Conditions at: ZPPP (KUNMING/WUJIABA , CN) observed 0100 UTC 19 March 2019
Temperature: 14.0°C (57°F)
Dewpoint: 4.0°C (39°F) [RH = 51%]
Pressure (altimeter): 30.09 inches Hg (1019.0 mb)
Winds: from the WSW (240 degrees) at 12 MPH (10 knots; 5.1 m/s)
Visibility: 6 or more miles (10+ km)
Ceiling: at least 12,000 feet AGL
Clouds: few clouds at 2600 feet AGL
scattered clouds at 4300 feet AGL
Weather: no significant weather observed at this time

METAR text: ZPPP 190000Z 23006MPS CAVOK 12/04 Q1018 NOSIG
Conditions at: ZPPP (KUNMING/WUJIABA , CN) observed 0000 UTC 19 March 2019
Temperature: 12.0°C (54°F)
Dewpoint: 4.0°C (39°F) [RH = 58%]
Pressure (altimeter): 30.06 inches Hg (1018.0 mb)
Winds: from the SW (230 degrees) at 14 MPH (12 knots; 6.2 m/s)
Visibility: 6 or more miles (10+ km)
Ceiling: ceiling and visibility are OK
Clouds: unknown
Weather: no significant weather observed at this time

METAR text: ZPPP 182300Z 23006MPS CAVOK 11/03 Q1017 NOSIG
Conditions at: ZPPP (KUNMING/WUJIABA , CN) observed 2300 UTC 18 March 2019
Temperature: 11.0°C (52°F)
Dewpoint: 3.0°C (37°F) [RH = 58%]
Pressure (altimeter): 30.03 inches Hg (1017.0 mb)
Winds: from the SW (230 degrees) at 14 MPH (12 knots; 6.2 m/s)
Visibility: 6 or more miles (10+ km)
Ceiling: ceiling and visibility are OK
Clouds: unknown
Weather: no significant weather observed at this time

METAR text: ZPPP 182200Z 22005MPS CAVOK 10/03 Q1017 NOSIG
Conditions at: ZPPP (KUNMING/WUJIABA , CN) observed 2200 UTC 18 March 2019
Temperature: 10.0°C (50°F)
Dewpoint: 3.0°C (37°F) [RH = 62%]
Pressure (altimeter): 30.03 inches Hg (1017.0 mb)
Winds: from the SW (220 degrees) at 12 MPH (10 knots; 5.1 m/s)
Visibility: 6 or more miles (10+ km)
Ceiling: ceiling and visibility are OK
Clouds: unknown
Weather: no significant weather observed at this time

METAR text: ZPPP 182100Z 24004MPS CAVOK 09/03 Q1017 NOSIG
Conditions at: ZPPP (KUNMING/WUJIABA , CN) observed 2100 UTC 18 March 2019
Temperature: 9.0°C (48°F)
Dewpoint: 3.0°C (37°F) [RH = 66%]
Pressure (altimeter): 30.03 inches Hg (1017.0 mb)
Winds: from the WSW (240 degrees) at 9 MPH (8 knots; 4.1 m/s)
Visibility: 6 or more miles (10+ km)
Ceiling: ceiling and visibility are OK
Clouds: unknown
Weather: no significant weather observed at this time

METAR text: ZPPP 182000Z 22004MPS CAVOK 10/03 Q1018 NOSIG
Conditions at: ZPPP (KUNMING/WUJIABA , CN) observed 2000 UTC 18 March 2019
Temperature: 10.0°C (50°F)
Dewpoint: 3.0°C (37°F) [RH = 62%]
Pressure (altimeter): 30.06 inches Hg (1018.0 mb)
Winds: from the SW (220 degrees) at 9 MPH (8 knots; 4.1 m/s)
Visibility: 6 or more miles (10+ km)
Ceiling: ceiling and visibility are OK
Clouds: unknown
Weather: no significant weather observed at this time

METAR text: ZPPP 181900Z 20003MPS CAVOK 12/02 Q1018 NOSIG
Conditions at: ZPPP (KUNMING/WUJIABA , CN) observed 1900 UTC 18 March 2019
Temperature: 12.0°C (54°F)
Dewpoint: 2.0°C (36°F) [RH = 50%]
Pressure (altimeter): 30.06 inches Hg (1018.0 mb)
Winds: from the SSW (200 degrees) at 7 MPH (6 knots; 3.1 m/s)
Visibility: 6 or more miles (10+ km)
Ceiling: ceiling and visibility are OK
Clouds: unknown
Weather: no significant weather observed at this time

Forecast for: ZPPP (KUNMING/WUJIABA , CN)
Text: TAF ZPPP 200111Z 2006/2106 23012G18MPS CAVOK TX21/2008Z TN10/2023Z
Forecast period: 0600 to 1200 UTC 20 March 2019
Forecast type: FROM: standard forecast or significant change
Winds: from the SW (230 degrees) at 26 MPH (23 knots; 11.8 m/s)
gusting to 40 MPH (35 knots; 18.0 m/s)
Visibility: 6 or more miles 10+ km)
Ceiling: unknown
Clouds: missing
Weather: no significant weather forecast for this period
Text: BECMG 2012/2013 23007MPS
Forecast period: 1200 UTC 20 March 2019 to 0600 UTC 21 March 2019
Forecast type: BECOMING: Conditions expected to become as follows by 1300 UTC 20 March 2019
Winds: from the SW (230 degrees) at 16 MPH (14 knots; 7.2 m/s)
Visibility: 6 or more miles 10+ km)
Ceiling: unknown
Clouds: missing
Weather: no significant weather forecast for this period